Preview of NWS' New Version of Forecast
This preview is not operational and should not be used for support decisions.

Terminal Aerodrome Forecast (TAF)

Issued by National Weather Service (NWS)

                            
000
FTUS42 KKEY 152208 AAC
TAFMTH
TAF AMD
KMTH 152208Z 1522/1618 33010KT P6SM SCT028
      TEMPO 1522/1601 BKN028
     FM160200 35009KT P6SM FEW030=